Time;durP1;ratioP1;P1;durP2;ratioP2;P2;SDS_P1;SDS_P2;PMS_P1;PMS_P2;Temp;Humidity;BMP_temperature;BMP_pressure;BME280_temperature;BME280_humidity;BME280_pressure;Samples;Min_cycle;Max_cycle;Signal;HPM_P1;HPM_P2
2023/07/12 00:00:30;;;;;;;1.63;0.73;;;;;;;;;;5053636;28;20056;-45
2023/07/12 00:02:58;;;;;;;0.70;0.65;;;;;;;;;;5053626;28;20064;-45
2023/07/12 00:05:27;;;;;;;0.90;0.70;;;;;;;;;;5053502;28;20027;-46
2023/07/12 00:07:55;;;;;;;0.80;0.60;;;;;;;;;;5053505;28;20091;-46
2023/07/12 00:10:24;;;;;;;0.82;0.70;;;;;;;;;;5053426;28;20017;-45
2023/07/12 00:12:51;;;;;;;0.65;0.60;;;;;;;;;;5053409;28;20033;-45
2023/07/12 00:15:29;;;;;;;1.13;0.80;;;;;;;;;;5053224;28;20029;-45
2023/07/12 00:17:57;;;;;;;0.95;0.70;;;;;;;;;;5053339;28;20027;-45
2023/07/12 00:20:35;;;;;;;0.90;0.70;;;;;;;;;;5053074;28;20437;-45
2023/07/12 00:23:02;;;;;;;0.85;0.60;;;;;;;;;;5053236;28;20032;-45
2023/07/12 00:25:33;;;;;;;1.02;0.65;;;;;;;;;;5053105;28;20074;-44
2023/07/12 00:28:01;;;;;;;0.65;0.57;;;;;;;;;;5053107;28;20036;-45
2023/07/12 00:30:32;;;;;;;0.70;0.63;;;;;;;;;;5053008;28;20043;-44
2023/07/12 00:33:03;;;;;;;0.73;0.65;;;;;;;;;;5052982;28;20032;-45
2023/07/12 00:35:31;;;;;;;1.02;0.70;;;;;;;;;;5053101;28;20387;-47
2023/07/12 00:37:59;;;;;;;0.68;0.60;;;;;;;;;;5052963;28;20029;-45
2023/07/12 00:40:49;;;;;;;1.10;0.70;;;;;;;;;;5052768;28;20391;-46
2023/07/12 00:43:19;;;;;;;0.75;0.65;;;;;;;;;;5033415;28;20049;-45
2023/07/12 00:45:48;;;;;;;0.70;0.57;;;;;;;;;;5052730;28;20094;-44
2023/07/12 00:48:15;;;;;;;0.60;0.60;;;;;;;;;;5052765;28;20406;-46
2023/07/12 00:50:43;;;;;;;0.70;0.70;;;;;;;;;;5052164;28;20474;-47
2023/07/12 00:53:13;;;;;;;0.70;0.60;;;;;;;;;;5052633;28;20544;-46
2023/07/12 00:55:55;;;;;;;0.82;0.60;;;;;;;;;;5052616;28;20047;-45
2023/07/12 00:58:23;;;;;;;0.85;0.60;;;;;;;;;;5052531;28;20029;-45
2023/07/12 01:00:51;;;;;;;1.15;0.60;;;;;;;;;;5052447;28;20033;-44
2023/07/12 01:03:19;;;;;;;0.60;0.60;;;;;;;;;;5052481;28;20087;-47
2023/07/12 01:05:46;;;;;;;0.75;0.50;;;;;;;;;;5052382;28;20036;-46
2023/07/12 01:08:14;;;;;;;0.73;0.70;;;;;;;;;;5052443;28;20394;-45
2023/07/12 01:10:41;;;;;;;1.20;0.60;;;;;;;;;;5052243;28;20479;-45
2023/07/12 01:13:08;;;;;;;0.80;0.57;;;;;;;;;;5052251;28;20108;-46
2023/07/12 01:15:36;;;;;;;0.80;0.60;;;;;;;;;;5052228;28;20056;-46
2023/07/12 01:18:08;;;;;;;0.60;0.60;;;;;;;;;;5052159;28;20036;-44
2023/07/12 01:20:37;;;;;;;0.87;0.73;;;;;;;;;;5052132;28;20068;-45
2023/07/12 01:23:04;;;;;;;0.73;0.57;;;;;;;;;;5052111;28;20017;-46
2023/07/12 01:25:36;;;;;;;0.70;0.50;;;;;;;;;;5051937;28;20051;-48
2023/07/12 01:28:07;;;;;;;0.63;0.60;;;;;;;;;;5051890;28;20077;-45
2023/07/12 01:30:35;;;;;;;0.70;0.60;;;;;;;;;;5033869;28;20021;-45
2023/07/12 01:33:03;;;;;;;0.70;0.70;;;;;;;;;;5051917;28;20025;-44
2023/07/12 01:35:31;;;;;;;0.70;0.50;;;;;;;;;;5051813;28;20059;-44
2023/07/12 01:37:58;;;;;;;1.13;0.70;;;;;;;;;;5051843;28;20089;-44
2023/07/12 01:40:25;;;;;;;0.90;0.60;;;;;;;;;;5051747;28;20102;-46
2023/07/12 01:42:52;;;;;;;0.85;0.55;;;;;;;;;;5051517;28;20368;-44
2023/07/12 01:45:19;;;;;;;0.77;0.57;;;;;;;;;;5051761;28;20032;-45
2023/07/12 01:47:46;;;;;;;1.17;0.75;;;;;;;;;;5051514;28;20402;-47
2023/07/12 01:50:13;;;;;;;0.57;0.50;;;;;;;;;;5051614;28;20025;-45
2023/07/12 01:52:40;;;;;;;1.85;0.65;;;;;;;;;;5051679;28;20025;-45
2023/07/12 01:55:08;;;;;;;1.05;0.70;;;;;;;;;;5051600;28;20075;-45
2023/07/12 01:57:35;;;;;;;0.93;0.68;;;;;;;;;;5051618;28;20057;-44
2023/07/12 02:00:02;;;;;;;0.90;0.60;;;;;;;;;;5051270;28;20029;-46
2023/07/12 02:02:31;;;;;;;0.57;0.50;;;;;;;;;;5050874;28;20037;-45
2023/07/12 02:04:58;;;;;;;0.80;0.60;;;;;;;;;;5051383;28;20036;-45
2023/07/12 02:07:25;;;;;;;1.08;0.68;;;;;;;;;;5051399;28;20120;-45
2023/07/12 02:10:28;;;;;;;0.70;0.68;;;;;;;;;;5051407;28;20071;-45
2023/07/12 02:12:55;;;;;;;1.43;0.87;;;;;;;;;;5009671;28;20173;-45
2023/07/12 02:15:22;;;;;;;0.95;0.70;;;;;;;;;;5043302;28;20932;-45
2023/07/12 02:17:49;;;;;;;0.88;0.65;;;;;;;;;;5051369;28;20045;-45
2023/07/12 02:20:16;;;;;;;1.02;0.80;;;;;;;;;;5051381;28;20105;-45
2023/07/12 02:22:45;;;;;;;0.82;0.63;;;;;;;;;;5051182;28;20120;-45
2023/07/12 02:25:13;;;;;;;0.80;0.80;;;;;;;;;;5051306;28;20039;-45
2023/07/12 02:27:41;;;;;;;0.70;0.60;;;;;;;;;;5051182;28;20395;-44
2023/07/12 02:30:10;;;;;;;0.70;0.68;;;;;;;;;;5051563;28;20040;-46
2023/07/12 02:32:37;;;;;;;0.60;0.60;;;;;;;;;;5051256;28;20024;-45
2023/07/12 02:35:04;;;;;;;0.80;0.60;;;;;;;;;;5051287;28;20031;-45
2023/07/12 02:37:31;;;;;;;1.08;0.60;;;;;;;;;;5051247;28;20044;-48
2023/07/12 02:39:58;;;;;;;0.75;0.50;;;;;;;;;;5050893;28;20437;-47
2023/07/12 02:42:25;;;;;;;1.05;0.50;;;;;;;;;;5051470;28;20067;-46
2023/07/12 02:44:52;;;;;;;0.63;0.60;;;;;;;;;;5050964;28;20045;-45
2023/07/12 02:47:19;;;;;;;0.70;0.50;;;;;;;;;;5051073;28;20040;-45
2023/07/12 02:49:46;;;;;;;0.50;0.50;;;;;;;;;;5051025;28;20037;-47
2023/07/12 02:52:14;;;;;;;0.77;0.60;;;;;;;;;;5051075;28;20424;-47
2023/07/12 02:54:41;;;;;;;0.85;0.60;;;;;;;;;;5050937;28;20040;-47
2023/07/12 02:57:09;;;;;;;0.60;0.50;;;;;;;;;;5051046;28;20597;-46
2023/07/12 02:59:37;;;;;;;0.77;0.60;;;;;;;;;;5050951;28;20067;-45
2023/07/12 03:02:04;;;;;;;0.50;0.50;;;;;;;;;;5051028;28;20029;-45
2023/07/12 03:04:31;;;;;;;0.77;0.60;;;;;;;;;;5033061;28;20048;-45
2023/07/12 03:06:58;;;;;;;0.73;0.50;;;;;;;;;;5050882;28;20105;-45
2023/07/12 03:09:25;;;;;;;0.60;0.47;;;;;;;;;;5050955;28;20657;-46
2023/07/12 03:11:52;;;;;;;0.82;0.60;;;;;;;;;;5051432;28;20387;-45
2023/07/12 03:14:20;;;;;;;0.82;0.70;;;;;;;;;;5054512;28;20033;-45
2023/07/12 03:16:47;;;;;;;0.88;0.57;;;;;;;;;;5054377;28;20057;-46
2023/07/12 03:19:15;;;;;;;0.60;0.52;;;;;;;;;;5054433;28;20122;-46
2023/07/12 03:21:42;;;;;;;1.00;0.60;;;;;;;;;;5054308;28;20021;-46
2023/07/12 03:24:10;;;;;;;0.60;0.60;;;;;;;;;;5054370;28;20029;-47
2023/07/12 03:26:37;;;;;;;0.57;0.50;;;;;;;;;;5054220;28;20519;-45
2023/07/12 03:29:05;;;;;;;0.90;0.63;;;;;;;;;;5054267;28;20035;-46
2023/07/12 03:31:32;;;;;;;0.60;0.47;;;;;;;;;;5053927;28;20029;-45
2023/07/12 03:34:00;;;;;;;0.82;0.60;;;;;;;;;;5054258;28;20041;-46
2023/07/12 03:36:31;;;;;;;0.60;0.45;;;;;;;;;;5054415;28;20035;-46
2023/07/12 03:38:59;;;;;;;0.60;0.57;;;;;;;;;;5054074;28;20029;-45
2023/07/12 03:41:27;;;;;;;0.68;0.65;;;;;;;;;;5053773;28;20033;-46
2023/07/12 03:43:54;;;;;;;0.50;0.50;;;;;;;;;;5053796;28;20041;-45
2023/07/12 03:46:21;;;;;;;0.63;0.50;;;;;;;;;;5053802;28;20029;-45
2023/07/12 03:48:48;;;;;;;0.60;0.50;;;;;;;;;;5053869;28;20033;-46
2023/07/12 03:51:17;;;;;;;0.55;0.55;;;;;;;;;;5053737;28;20033;-46
2023/07/12 03:53:45;;;;;;;0.75;0.52;;;;;;;;;;5053630;28;20108;-46
2023/07/12 03:56:12;;;;;;;0.80;0.60;;;;;;;;;;5035633;28;20451;-45
2023/07/12 03:58:39;;;;;;;0.75;0.50;;;;;;;;;;5053679;28;20086;-45
2023/07/12 04:01:11;;;;;;;0.73;0.60;;;;;;;;;;5053565;28;20025;-47
2023/07/12 04:03:38;;;;;;;0.60;0.60;;;;;;;;;;5053599;28;20509;-45
2023/07/12 04:06:06;;;;;;;0.70;0.60;;;;;;;;;;5053480;28;20291;-47
2023/07/12 04:08:33;;;;;;;0.90;0.50;;;;;;;;;;5053461;28;20025;-46
2023/07/12 04:11:01;;;;;;;0.45;0.40;;;;;;;;;;5053358;28;20491;-46
2023/07/12 04:13:28;;;;;;;0.77;0.60;;;;;;;;;;5053299;28;20428;-45
2023/07/12 04:15:56;;;;;;;0.70;0.52;;;;;;;;;;5053371;28;20036;-46
2023/07/12 04:18:24;;;;;;;0.68;0.50;;;;;;;;;;5053322;28;20518;-45
2023/07/12 04:20:51;;;;;;;0.60;0.50;;;;;;;;;;5053197;28;20037;-47
2023/07/12 04:23:18;;;;;;;0.50;0.50;;;;;;;;;;5052832;28;20033;-45
2023/07/12 04:25:45;;;;;;;0.57;0.50;;;;;;;;;;5052738;28;20029;-45
2023/07/12 04:28:12;;;;;;;0.45;0.40;;;;;;;;;;5053151;28;20040;-47
2023/07/12 04:30:39;;;;;;;0.40;0.35;;;;;;;;;;5052934;28;20033;-45
2023/07/12 04:33:07;;;;;;;0.40;0.40;;;;;;;;;;5053069;28;20049;-46
2023/07/12 04:35:38;;;;;;;0.70;0.50;;;;;;;;;;5053043;28;20028;-47
2023/07/12 04:38:05;;;;;;;0.50;0.50;;;;;;;;;;5052899;28;20407;-46
2023/07/12 04:40:32;;;;;;;0.50;0.50;;;;;;;;;;5052802;28;20028;-47
2023/07/12 04:42:59;;;;;;;0.47;0.40;;;;;;;;;;5052605;28;20037;-46
2023/07/12 04:45:46;;;;;;;0.50;0.50;;;;;;;;;;5052227;28;20055;-47
2023/07/12 04:48:14;;;;;;;1.30;0.60;;;;;;;;;;5052705;28;20390;-45
2023/07/12 04:50:41;;;;;;;0.75;0.60;;;;;;;;;;5052626;28;20033;-46
2023/07/12 04:53:08;;;;;;;0.65;0.50;;;;;;;;;;5052574;28;20032;-45
2023/07/12 04:55:35;;;;;;;0.50;0.50;;;;;;;;;;5052614;28;20487;-45
2023/07/12 04:58:02;;;;;;;1.48;0.40;;;;;;;;;;5052875;28;20060;-45
2023/07/12 05:00:29;;;;;;;0.80;0.60;;;;;;;;;;5052372;28;20021;-46
2023/07/12 05:02:56;;;;;;;0.40;0.40;;;;;;;;;;5052419;28;20017;-46
2023/07/12 05:05:23;;;;;;;1.10;0.60;;;;;;;;;;5052459;28;20048;-47
2023/07/12 05:07:50;;;;;;;0.63;0.40;;;;;;;;;;5052382;28;20446;-45
2023/07/12 05:10:17;;;;;;;0.50;0.50;;;;;;;;;;5052329;28;20524;-46
2023/07/12 05:12:45;;;;;;;0.43;0.40;;;;;;;;;;5052300;28;20028;-47
2023/07/12 05:15:12;;;;;;;1.00;0.60;;;;;;;;;;5052247;28;20045;-45
2023/07/12 05:17:40;;;;;;;0.88;0.57;;;;;;;;;;5052230;28;20525;-45
2023/07/12 05:20:09;;;;;;;0.93;0.50;;;;;;;;;;5052113;28;20033;-45
2023/07/12 05:22:36;;;;;;;0.57;0.52;;;;;;;;;;5052137;28;20057;-45
2023/07/12 05:25:03;;;;;;;0.50;0.47;;;;;;;;;;5052035;28;20432;-46
2023/07/12 05:27:30;;;;;;;0.40;0.40;;;;;;;;;;5051868;28;20098;-46
2023/07/12 05:29:57;;;;;;;0.52;0.50;;;;;;;;;;5051859;28;20037;-49
2023/07/12 05:32:24;;;;;;;0.60;0.50;;;;;;;;;;5051969;28;20053;-46
2023/07/12 05:34:51;;;;;;;1.00;0.60;;;;;;;;;;5051827;28;20525;-45
2023/07/12 05:37:18;;;;;;;0.55;0.40;;;;;;;;;;5051831;28;20441;-46
2023/07/12 05:39:45;;;;;;;0.57;0.50;;;;;;;;;;5051737;28;20079;-45
2023/07/12 05:42:12;;;;;;;0.40;0.38;;;;;;;;;;5051815;28;20479;-45
2023/07/12 05:44:39;;;;;;;0.60;0.43;;;;;;;;;;5051518;28;20045;-45
2023/07/12 05:47:06;;;;;;;0.50;0.50;;;;;;;;;;5051674;28;20498;-46
2023/07/12 05:49:35;;;;;;;0.63;0.50;;;;;;;;;;5051564;28;20191;-48
2023/07/12 05:52:02;;;;;;;0.40;0.40;;;;;;;;;;5051573;28;20025;-45
2023/07/12 05:54:30;;;;;;;0.60;0.52;;;;;;;;;;5051527;28;20033;-45
2023/07/12 05:56:57;;;;;;;0.50;0.40;;;;;;;;;;5051883;28;20466;-45
2023/07/12 05:59:24;;;;;;;0.70;0.40;;;;;;;;;;5051478;28;20028;-47
2023/07/12 06:01:51;;;;;;;0.47;0.40;;;;;;;;;;5048973;28;20031;-46
2023/07/12 06:04:18;;;;;;;0.65;0.40;;;;;;;;;;5051575;28;20029;-45
2023/07/12 06:06:45;;;;;;;0.40;0.40;;;;;;;;;;5051490;28;20029;-45
2023/07/12 06:09:12;;;;;;;0.47;0.40;;;;;;;;;;5051341;28;20391;-46
2023/07/12 06:11:40;;;;;;;0.40;0.30;;;;;;;;;;5051328;28;20035;-46
2023/07/12 06:14:07;;;;;;;0.77;0.57;;;;;;;;;;5051469;28;20060;-46
2023/07/12 06:16:34;;;;;;;0.70;0.50;;;;;;;;;;5051454;28;20096;-45
2023/07/12 06:19:01;;;;;;;0.63;0.40;;;;;;;;;;5051436;28;20055;-45
2023/07/12 06:21:28;;;;;;;0.52;0.50;;;;;;;;;;5051278;28;20026;-45
2023/07/12 06:23:57;;;;;;;0.57;0.50;;;;;;;;;;5033364;28;20491;-46
2023/07/12 06:26:24;;;;;;;0.50;0.47;;;;;;;;;;5051201;28;20041;-45
2023/07/12 06:28:51;;;;;;;0.95;0.50;;;;;;;;;;5051307;28;20032;-47
2023/07/12 06:31:18;;;;;;;0.40;0.30;;;;;;;;;;5198804;22;20080;-48
2023/07/12 06:33:45;;;;;;;0.60;0.40;;;;;;;;;;5050006;28;20036;-51
2023/07/12 06:36:12;;;;;;;0.50;0.40;;;;;;;;;;5051348;28;20021;-53
2023/07/12 06:38:39;;;;;;;0.47;0.47;;;;;;;;;;5051309;28;20021;-51
2023/07/12 06:41:06;;;;;;;0.40;0.40;;;;;;;;;;5051172;28;20547;-53
2023/07/12 06:43:33;;;;;;;0.47;0.40;;;;;;;;;;5051247;28;20047;-51
2023/07/12 06:46:00;;;;;;;0.40;0.40;;;;;;;;;;5033125;28;20033;-54
2023/07/12 06:48:28;;;;;;;0.40;0.40;;;;;;;;;;5054409;28;20017;-53
2023/07/12 06:50:55;;;;;;;0.40;0.40;;;;;;;;;;5054768;28;20029;-52
2023/07/12 06:53:22;;;;;;;0.40;0.40;;;;;;;;;;5054911;28;20457;-52
2023/07/12 06:55:49;;;;;;;0.40;0.40;;;;;;;;;;5054945;28;20017;-50
2023/07/12 06:58:16;;;;;;;0.65;0.50;;;;;;;;;;5054881;28;20025;-51
2023/07/12 07:00:44;;;;;;;0.50;0.50;;;;;;;;;;5054868;28;20425;-54
2023/07/12 07:03:12;;;;;;;0.40;0.40;;;;;;;;;;5054652;28;20021;-51
2023/07/12 07:05:44;;;;;;;0.57;0.40;;;;;;;;;;5054728;28;20025;-51
2023/07/12 07:08:12;;;;;;;0.85;0.50;;;;;;;;;;5054508;28;20041;-51
2023/07/12 07:10:39;;;;;;;0.47;0.32;;;;;;;;;;5054680;28;20024;-51
2023/07/12 07:13:06;;;;;;;0.70;0.50;;;;;;;;;;5054485;28;20017;-53
2023/07/12 07:15:33;;;;;;;0.57;0.50;;;;;;;;;;5054526;28;20032;-52
2023/07/12 07:18:00;;;;;;;0.40;0.40;;;;;;;;;;5054560;28;20055;-50
2023/07/12 07:20:28;;;;;;;0.55;0.40;;;;;;;;;;5054362;28;20040;-52
2023/07/12 07:22:55;;;;;;;0.30;0.30;;;;;;;;;;5054380;28;20040;-54
2023/07/12 07:25:24;;;;;;;0.73;0.57;;;;;;;;;;5054353;28;20048;-51
2023/07/12 07:27:51;;;;;;;0.68;0.50;;;;;;;;;;5054069;28;20083;-54
2023/07/12 07:30:18;;;;;;;0.43;0.40;;;;;;;;;;5054242;28;20137;-50
2023/07/12 07:32:46;;;;;;;0.40;0.40;;;;;;;;;;5053971;28;20037;-52
2023/07/12 07:35:13;;;;;;;0.30;0.30;;;;;;;;;;5054249;28;20021;-52
2023/07/12 07:37:40;;;;;;;0.40;0.40;;;;;;;;;;5054141;28;20044;-54
2023/07/12 07:40:08;;;;;;;0.40;0.38;;;;;;;;;;5054042;28;20032;-51
2023/07/12 07:42:35;;;;;;;0.85;0.30;;;;;;;;;;5053936;28;20410;-51
2023/07/12 07:45:02;;;;;;;0.47;0.40;;;;;;;;;;5054303;28;20052;-50
2023/07/12 07:47:29;;;;;;;0.40;0.40;;;;;;;;;;5035871;28;20032;-51
2023/07/12 07:49:57;;;;;;;0.40;0.40;;;;;;;;;;5053820;28;20450;-52
2023/07/12 07:52:24;;;;;;;0.30;0.30;;;;;;;;;;5053811;28;20021;-52
2023/07/12 07:54:51;;;;;;;0.60;0.55;;;;;;;;;;5053799;28;20066;-51
2023/07/12 07:57:18;;;;;;;0.35;0.30;;;;;;;;;;5053813;28;20112;-52
2023/07/12 07:59:45;;;;;;;0.65;0.50;;;;;;;;;;5052536;28;20021;-51
2023/07/12 08:02:13;;;;;;;0.50;0.40;;;;;;;;;;5053579;28;20025;-52
2023/07/12 08:04:40;;;;;;;0.40;0.40;;;;;;;;;;5053636;28;20028;-52
2023/07/12 08:07:08;;;;;;;0.40;0.40;;;;;;;;;;5053540;28;20033;-50
2023/07/12 08:09:35;;;;;;;0.30;0.30;;;;;;;;;;5053518;28;20027;-51
2023/07/12 08:12:03;;;;;;;0.30;0.30;;;;;;;;;;5053361;28;20036;-52
2023/07/12 08:14:30;;;;;;;0.40;0.40;;;;;;;;;;5053722;28;20017;-52
2023/07/12 08:16:57;;;;;;;0.40;0.40;;;;;;;;;;5053365;28;20025;-51
2023/07/12 08:19:24;;;;;;;0.47;0.40;;;;;;;;;;5053352;28;20036;-55
2023/07/12 08:21:51;;;;;;;0.45;0.30;;;;;;;;;;5053093;28;20433;-54
2023/07/12 08:24:18;;;;;;;0.38;0.38;;;;;;;;;;5053275;28;20029;-53
2023/07/12 08:26:45;;;;;;;0.45;0.30;;;;;;;;;;5053155;28;20025;-54
2023/07/12 08:29:12;;;;;;;0.75;0.45;;;;;;;;;;5053178;28;20533;-52
2023/07/12 08:31:39;;;;;;;0.85;0.40;;;;;;;;;;5053095;28;20460;-51
2023/07/12 08:34:07;;;;;;;0.63;0.30;;;;;;;;;;5053054;28;20025;-52
2023/07/12 08:36:33;;;;;;;0.80;0.50;;;;;;;;;;5053092;28;20034;-51
2023/07/12 08:39:00;;;;;;;0.30;0.30;;;;;;;;;;5052985;28;20025;-52
2023/07/12 08:41:29;;;;;;;0.30;0.30;;;;;;;;;;5052904;28;20025;-54
2023/07/12 08:43:56;;;;;;;0.43;0.40;;;;;;;;;;5052656;28;20032;-53
2023/07/12 08:46:30;;;;;;;0.30;0.30;;;;;;;;;;5052795;28;20029;-52
2023/07/12 08:49:02;;;;;;;0.30;0.30;;;;;;;;;;5052660;28;20033;-52
2023/07/12 08:51:30;;;;;;;0.43;0.40;;;;;;;;;;5052771;28;20028;-51
2023/07/12 08:53:57;;;;;;;0.50;0.30;;;;;;;;;;5052677;28;20508;-54
2023/07/12 08:56:25;;;;;;;0.30;0.30;;;;;;;;;;5052641;28;20238;-52
2023/07/12 08:58:53;;;;;;;0.50;0.47;;;;;;;;;;5052589;28;20017;-51
2023/07/12 09:01:20;;;;;;;0.50;0.32;;;;;;;;;;5052457;28;20110;-51
2023/07/12 09:03:47;;;;;;;0.30;0.30;;;;;;;;;;5052505;28;20020;-55
2023/07/12 09:06:16;;;;;;;0.47;0.40;;;;;;;;;;5052633;28;20560;-51
2023/07/12 09:08:53;;;;;;;0.63;0.40;;;;;;;;;;5052469;28;20029;-56
2023/07/12 09:11:27;;;;;;;0.30;0.30;;;;;;;;;;5052273;28;20425;-52
2023/07/12 09:13:55;;;;;;;1.15;0.40;;;;;;;;;;5052194;28;20474;-52
2023/07/12 09:16:22;;;;;;;0.50;0.45;;;;;;;;;;5052297;28;20486;-54
2023/07/12 09:18:52;;;;;;;0.32;0.30;;;;;;;;;;5052221;28;20557;-52
2023/07/12 09:21:32;;;;;;;0.30;0.30;;;;;;;;;;5051891;28;20100;-53
2023/07/12 09:24:04;;;;;;;0.40;0.40;;;;;;;;;;5052154;28;20013;-53
2023/07/12 09:26:32;;;;;;;0.40;0.40;;;;;;;;;;5052065;28;20398;-51
2023/07/12 09:29:05;;;;;;;0.40;0.30;;;;;;;;;;5052022;28;20024;-51
2023/07/12 09:31:34;;;;;;;0.57;0.40;;;;;;;;;;5033785;28;20049;-51
2023/07/12 09:34:05;;;;;;;0.50;0.40;;;;;;;;;;5051866;28;20029;-55
2023/07/12 09:36:36;;;;;;;0.30;0.30;;;;;;;;;;5051977;28;20025;-51
2023/07/12 09:39:07;;;;;;;0.40;0.40;;;;;;;;;;5051936;28;20029;-52
2023/07/12 09:41:34;;;;;;;0.40;0.38;;;;;;;;;;5051783;28;20029;-54
2023/07/12 09:44:02;;;;;;;0.85;0.45;;;;;;;;;;5051833;28;20048;-51
2023/07/12 09:46:33;;;;;;;0.55;0.40;;;;;;;;;;5051736;28;20071;-51
2023/07/12 09:49:04;;;;;;;0.40;0.30;;;;;;;;;;5051770;28;20017;-51
2023/07/12 09:51:32;;;;;;;0.50;0.50;;;;;;;;;;5051529;28;20025;-52
2023/07/12 09:54:03;;;;;;;0.80;0.40;;;;;;;;;;5051533;28;20017;-50
2023/07/12 09:56:43;;;;;;;0.40;0.40;;;;;;;;;;5051718;28;20021;-53
2023/07/12 09:59:33;;;;;;;0.40;0.40;;;;;;;;;;5051635;28;20025;-50
2023/07/12 10:02:19;;;;;;;0.52;0.45;;;;;;;;;;5023405;28;20122;-51
2023/07/12 10:04:52;;;;;;;0.35;0.32;;;;;;;;;;5051613;28;20025;-54
2023/07/12 10:07:30;;;;;;;0.82;0.40;;;;;;;;;;5051442;28;20420;-53
2023/07/12 10:09:57;;;;;;;0.60;0.50;;;;;;;;;;5051545;28;20072;-52
2023/07/12 10:12:53;;;;;;;0.40;0.40;;;;;;;;;;5051769;28;20028;-53
2023/07/12 10:15:20;;;;;;;0.30;0.30;;;;;;;;;;4997583;28;20135;-51
2023/07/12 10:17:47;;;;;;;0.77;0.32;;;;;;;;;;5051483;28;20039;-51
2023/07/12 10:20:18;;;;;;;0.40;0.40;;;;;;;;;;5051349;28;20429;-51
2023/07/12 10:22:45;;;;;;;0.30;0.30;;;;;;;;;;5053346;28;20035;-52
2023/07/12 10:25:23;;;;;;;0.60;0.35;;;;;;;;;;5055485;28;20036;-55
2023/07/12 10:27:53;;;;;;;0.32;0.30;;;;;;;;;;5055418;28;20057;-51
2023/07/12 10:30:22;;;;;;;0.40;0.40;;;;;;;;;;5055480;28;20421;-52
2023/07/12 10:32:51;;;;;;;0.40;0.40;;;;;;;;;;5055137;28;20040;-52
2023/07/12 10:35:18;;;;;;;0.45;0.45;;;;;;;;;;5055309;28;20028;-54
2023/07/12 10:37:48;;;;;;;0.40;0.40;;;;;;;;;;5055277;28;20052;-52
2023/07/12 10:40:21;;;;;;;0.80;0.40;;;;;;;;;;5055238;28;20029;-54
2023/07/12 10:42:59;;;;;;;0.60;0.40;;;;;;;;;;5055134;28;20021;-54
2023/07/12 10:45:29;;;;;;;0.40;0.30;;;;;;;;;;5055111;28;20483;-51
2023/07/12 10:47:56;;;;;;;0.30;0.30;;;;;;;;;;5055020;28;20053;-54
2023/07/12 10:50:45;;;;;;;0.60;0.30;;;;;;;;;;5055079;28;20484;-53
2023/07/12 10:53:15;;;;;;;0.40;0.40;;;;;;;;;;5036988;28;20047;-51
2023/07/12 10:55:48;;;;;;;1.23;0.40;;;;;;;;;;5048870;28;20043;-53
2023/07/12 10:58:26;;;;;;;0.45;0.30;;;;;;;;;;5054747;28;20037;-51
2023/07/12 11:01:00;;;;;;;0.32;0.32;;;;;;;;;;5054803;28;20029;-54
2023/07/12 11:03:47;;;;;;;0.77;0.40;;;;;;;;;;5054840;28;20041;-54
2023/07/12 11:06:30;;;;;;;1.17;0.50;;;;;;;;;;5054468;28;20116;-53
2023/07/12 11:08:56;;;;;;;;;;;;;;;;;;5055160;28;20536;-51
2023/07/12 11:11:29;;;;;;;0.50;0.43;;;;;;;;;;5054641;28;19963;-51
2023/07/12 11:14:16;;;;;;;0.40;0.40;;;;;;;;;;5054384;28;20025;-52
2023/07/12 11:17:09;;;;;;;0.50;0.30;;;;;;;;;;5054597;28;20063;-52
2023/07/12 11:19:36;;;;;;;;;;;;;;;;;;5031764;28;20123;-52
2023/07/12 11:22:17;;;;;;;0.50;0.40;;;;;;;;;;5054266;28;20305;-51
2023/07/12 11:24:47;;;;;;;0.50;0.43;;;;;;;;;;5054470;28;20028;-53
2023/07/12 11:27:34;;;;;;;1.00;0.45;;;;;;;;;;5054340;28;20033;-51
2023/07/12 11:30:26;;;;;;;0.30;0.30;;;;;;;;;;5043850;28;20090;-52
2023/07/12 11:33:02;;;;;;;0.43;0.40;;;;;;;;;;5053764;28;20053;-50
2023/07/12 11:35:42;;;;;;;0.40;0.40;;;;;;;;;;5054246;28;20036;-52
2023/07/12 11:38:27;;;;;;;0.50;0.40;;;;;;;;;;5053938;28;20071;-52
2023/07/12 11:40:55;;;;;;;0.30;0.30;;;;;;;;;;5054069;28;20021;-53
2023/07/12 11:43:26;;;;;;;0.90;0.50;;;;;;;;;;5048382;28;20475;-54
2023/07/12 11:45:57;;;;;;;0.35;0.30;;;;;;;;;;5053785;28;20025;-52
2023/07/12 11:48:25;;;;;;;0.55;0.40;;;;;;;;;;5053981;28;20032;-55
2023/07/12 11:50:53;;;;;;;0.63;0.32;;;;;;;;;;5053814;28;20471;-51
2023/07/12 11:53:21;;;;;;;1.10;0.50;;;;;;;;;;5053871;28;20047;-52
2023/07/12 11:55:49;;;;;;;0.65;0.43;;;;;;;;;;5053825;28;20028;-51
2023/07/12 11:58:17;;;;;;;0.40;0.40;;;;;;;;;;5053694;28;20417;-51
2023/07/12 12:00:45;;;;;;;0.30;0.30;;;;;;;;;;5053662;28;20017;-54
2023/07/12 12:03:14;;;;;;;0.52;0.35;;;;;;;;;;5053706;28;20021;-53
2023/07/12 12:05:43;;;;;;;0.47;0.40;;;;;;;;;;5053644;28;20025;-53
2023/07/12 12:08:29;;;;;;;0.82;0.40;;;;;;;;;;5053372;28;20052;-51
2023/07/12 12:10:56;;;;;;;0.60;0.45;;;;;;;;;;5053526;28;20485;-54
2023/07/12 12:13:23;;;;;;;0.40;0.30;;;;;;;;;;5053548;28;20024;-54
2023/07/12 12:15:51;;;;;;;0.80;0.40;;;;;;;;;;5053502;28;20021;-51
2023/07/12 12:18:20;;;;;;;0.47;0.38;;;;;;;;;;5053399;28;20036;-51
2023/07/12 12:20:54;;;;;;;0.52;0.40;;;;;;;;;;5053276;28;20052;-52
2023/07/12 12:23:22;;;;;;;0.70;0.50;;;;;;;;;;5053299;28;20021;-55
2023/07/12 12:25:50;;;;;;;0.47;0.40;;;;;;;;;;5053282;28;20021;-54
2023/07/12 12:28:26;;;;;;;0.55;0.40;;;;;;;;;;5053189;28;20033;-52
2023/07/12 12:31:08;;;;;;;0.40;0.40;;;;;;;;;;5053063;28;20021;-50
2023/07/12 12:33:35;;;;;;;0.35;0.35;;;;;;;;;;5053041;28;20103;-52
2023/07/12 12:36:06;;;;;;;0.47;0.30;;;;;;;;;;5053100;28;20103;-51
2023/07/12 12:38:39;;;;;;;0.57;0.50;;;;;;;;;;5052980;28;20093;-53
2023/07/12 12:41:17;;;;;;;0.40;0.40;;;;;;;;;;5052742;28;20025;-52
2023/07/12 12:44:00;;;;;;;0.32;0.30;;;;;;;;;;5052773;28;20468;-51
2023/07/12 12:46:28;;;;;;;1.05;0.45;;;;;;;;;;5052128;28;20040;-51
2023/07/12 12:48:55;;;;;;;0.40;0.40;;;;;;;;;;5052600;28;20439;-54
2023/07/12 12:51:24;;;;;;;0.57;0.50;;;;;;;;;;5052664;28;20498;-54
2023/07/12 12:53:51;;;;;;;0.50;0.40;;;;;;;;;;5052755;28;20052;-52
2023/07/12 12:56:19;;;;;;;0.43;0.40;;;;;;;;;;5052702;28;20036;-52
2023/07/12 12:58:46;;;;;;;1.25;0.40;;;;;;;;;;5052563;28;20035;-53
2023/07/12 13:01:14;;;;;;;1.63;0.55;;;;;;;;;;5052557;28;20029;-51
2023/07/12 13:03:41;;;;;;;0.50;0.40;;;;;;;;;;5052598;28;20096;-53
2023/07/12 13:06:18;;;;;;;0.70;0.40;;;;;;;;;;5052416;28;20021;-54
2023/07/12 13:08:45;;;;;;;0.70;0.40;;;;;;;;;;5052435;28;20025;-55
2023/07/12 13:11:12;;;;;;;1.70;0.40;;;;;;;;;;5052323;28;20025;-51
2023/07/12 13:13:40;;;;;;;0.75;0.50;;;;;;;;;;5052346;28;20050;-52
2023/07/12 13:16:14;;;;;;;0.40;0.40;;;;;;;;;;5052337;28;20378;-51
2023/07/12 13:18:41;;;;;;;0.50;0.40;;;;;;;;;;5052320;28;20029;-51
2023/07/12 13:21:16;;;;;;;0.32;0.32;;;;;;;;;;5052072;28;20025;-51
2023/07/12 13:23:43;;;;;;;0.60;0.40;;;;;;;;;;5052236;28;20029;-53
2023/07/12 13:26:21;;;;;;;0.60;0.47;;;;;;;;;;5052078;28;20032;-51
2023/07/12 13:28:48;;;;;;;0.77;0.60;;;;;;;;;;5052091;28;20029;-52
2023/07/12 13:31:16;;;;;;;0.95;0.50;;;;;;;;;;5051704;28;20152;-51
2023/07/12 13:33:44;;;;;;;1.05;0.50;;;;;;;;;;5052045;28;20445;-53
2023/07/12 13:36:37;;;;;;;0.68;0.50;;;;;;;;;;5034034;28;20025;-51
2023/07/12 13:39:10;;;;;;;0.60;0.50;;;;;;;;;;5049255;28;20087;-52
2023/07/12 13:41:37;;;;;;;0.60;0.50;;;;;;;;;;5051785;28;20025;-50
2023/07/12 13:44:05;;;;;;;0.95;0.55;;;;;;;;;;5051994;28;20029;-51
2023/07/12 13:46:32;;;;;;;0.70;0.40;;;;;;;;;;5051743;28;20475;-54
2023/07/12 13:48:59;;;;;;;0.55;0.50;;;;;;;;;;5051800;28;20029;-55
2023/07/12 13:51:26;;;;;;;0.65;0.57;;;;;;;;;;5051601;28;20029;-51
2023/07/12 13:53:53;;;;;;;0.65;0.63;;;;;;;;;;5051599;28;20033;-52
2023/07/12 13:56:20;;;;;;;0.68;0.60;;;;;;;;;;5051059;28;20021;-51
2023/07/12 13:58:47;;;;;;;0.90;0.47;;;;;;;;;;5051446;28;20421;-51
2023/07/12 14:01:15;;;;;;;0.50;0.40;;;;;;;;;;5051595;28;20047;-51
2023/07/12 14:03:42;;;;;;;0.75;0.50;;;;;;;;;;5051503;28;20021;-53
2023/07/12 14:06:14;;;;;;;0.60;0.40;;;;;;;;;;5051814;28;20035;-52
2023/07/12 14:08:41;;;;;;;0.52;0.50;;;;;;;;;;5051597;28;20031;-51
2023/07/12 14:11:37;;;;;;;1.35;0.50;;;;;;;;;;5051449;28;20403;-51
2023/07/12 14:14:04;;;;;;;0.70;0.60;;;;;;;;;;5038913;28;20485;-53
2023/07/12 14:16:33;;;;;;;1.20;0.63;;;;;;;;;;5051457;28;20029;-51
2023/07/12 14:19:00;;;;;;;1.58;0.63;;;;;;;;;;5051295;28;20029;-51
2023/07/12 14:21:28;;;;;;;0.60;0.60;;;;;;;;;;5051362;28;20378;-54
2023/07/12 14:23:55;;;;;;;0.93;0.57;;;;;;;;;;5051377;28;20029;-53
2023/07/12 14:26:24;;;;;;;0.60;0.50;;;;;;;;;;5051172;28;20124;-52
2023/07/12 14:28:51;;;;;;;1.23;0.60;;;;;;;;;;5051405;28;20021;-53
2023/07/12 14:31:23;;;;;;;1.02;0.50;;;;;;;;;;5051093;28;20073;-51
2023/07/12 14:33:51;;;;;;;0.70;0.60;;;;;;;;;;5051346;28;20029;-53
2023/07/12 14:36:20;;;;;;;0.60;0.43;;;;;;;;;;5051148;28;20025;-51
2023/07/12 14:38:48;;;;;;;0.70;0.60;;;;;;;;;;5051261;28;20025;-50
2023/07/12 14:41:35;;;;;;;0.80;0.57;;;;;;;;;;5051226;28;20063;-51
2023/07/12 14:44:12;;;;;;;0.70;0.60;;;;;;;;;;5051330;28;20040;-52
2023/07/12 14:46:39;;;;;;;0.55;0.50;;;;;;;;;;5051107;28;20764;-51
2023/07/12 14:49:06;;;;;;;0.60;0.60;;;;;;;;;;5051187;28;20441;-52
2023/07/12 14:51:34;;;;;;;0.70;0.47;;;;;;;;;;5051102;28;20029;-53
2023/07/12 14:54:04;;;;;;;0.57;0.50;;;;;;;;;;5051105;28;20661;-54
2023/07/12 14:56:31;;;;;;;0.90;0.60;;;;;;;;;;5051110;28;20033;-55